Time;durP1;ratioP1;P1;durP2;ratioP2;P2;SDS_P1;SDS_P2;PMS_P1;PMS_P2;Temp;Humidity;BMP_temperature;BMP_pressure;BME280_temperature;BME280_humidity;BME280_pressure;Samples;Min_cycle;Max_cycle;Signal;HPM_P1;HPM_P2
2022/10/23 00:00:38;;;;;;;;;;;;;;;9.55;100.00;101419.47;4988646;28;20568;-73
2022/10/23 00:03:04;;;;;;;;;;;;;;;9.56;100.00;101413.25;4959420;28;19963;-73
2022/10/23 00:05:29;;;;;;;;;;;;;;;9.59;100.00;101423.72;4967860;28;20037;-73
2022/10/23 00:07:56;;;;;;;;;;;;;;;9.62;100.00;101420.13;4987389;28;19929;-73
2022/10/23 00:10:22;;;;;;;;;;;;;;;9.61;100.00;101408.69;4989413;28;20038;-73
2022/10/23 00:12:47;;;;;;;;;;;;;;;9.62;100.00;101421.00;4986220;28;20016;-74
2022/10/23 00:15:13;;;;;;;;;;;;;;;9.62;100.00;101422.75;4989902;28;19936;-73
2022/10/23 00:17:39;;;;;;;;;;;;;;;9.60;100.00;101424.59;4969881;28;19925;-73
2022/10/23 00:20:05;;;;;;;;;;;;;;;9.57;100.00;101425.56;4992289;28;20369;-74
2022/10/23 00:22:30;;;;;;;;;;;;;;;9.56;100.00;101437.06;4988527;28;20011;-74
2022/10/23 00:24:56;;;;;;;;;;;;;;;9.55;100.00;101429.16;4987618;28;19938;-73
2022/10/23 00:27:21;;;;;;;;;;;;;;;9.53;100.00;101429.22;4990404;28;21480;-73
2022/10/23 00:29:47;;;;;;;;;;;;;;;9.53;100.00;101431.00;4987051;28;20316;-73
2022/10/23 00:32:12;;;;;;;;;;;;;;;9.51;100.00;101425.75;4968742;28;19929;-74
2022/10/23 00:34:38;;;;;;;;;;;;;;;9.49;100.00;101422.31;4970388;28;19938;-73
2022/10/23 00:37:03;;;;;;;;;;;;;;;9.46;100.00;101419.75;4969728;28;19930;-74
2022/10/23 00:39:28;;;;;;;;;;;;;;;9.45;100.00;101420.66;4989266;28;19934;-73
2022/10/23 00:41:54;;;;;;;;;;;;;;;9.46;100.00;101417.09;4969825;28;19929;-73
2022/10/23 00:44:19;;;;;;;;;;;;;;;9.43;100.00;101414.56;4970356;28;20011;-73
2022/10/23 00:46:45;;;;;;;;;;;;;;;9.40;100.00;101418.16;4968875;28;19929;-73
2022/10/23 00:49:10;;;;;;;;;;;;;;;9.41;100.00;101429.63;4990462;28;19934;-73
2022/10/23 00:51:40;;;;;;;;;;;;;;;9.41;100.00;101435.75;4969705;28;19929;-73
2022/10/23 00:54:05;;;;;;;;;;;;;;;9.42;100.00;101440.13;4990484;28;20332;-74
2022/10/23 00:56:30;;;;;;;;;;;;;;;9.40;100.00;101433.16;4989452;28;19929;-74
2022/10/23 00:58:56;;;;;;;;;;;;;;;9.36;100.00;101433.25;4973082;28;19929;-73
2022/10/23 01:01:21;;;;;;;;;;;;;;;9.35;100.00;101425.38;4991250;28;19933;-74
2022/10/23 01:03:47;;;;;;;;;;;;;;;9.33;100.00;101412.19;4971166;28;19930;-74
2022/10/23 01:06:19;;;;;;;;;;;;;;;9.31;100.00;101407.91;4945293;28;20012;-73
2022/10/23 01:08:52;;;;;;;;;;;;;;;9.31;100.00;101416.66;4991947;28;20380;-74
2022/10/23 01:11:27;;;;;;;;;;;;;;;9.30;100.00;101414.94;4991742;28;20316;-73
2022/10/23 01:14:05;;;;;;;;;;;;;;;9.30;100.00;101414.94;4960382;28;20403;-74
2022/10/23 01:16:33;;;;;;;;;;;;;;;9.29;100.00;101409.69;4972150;28;20200;-74
2022/10/23 01:19:22;;;;;;;;;;;;;;;9.29;100.00;101407.94;4959924;28;20456;-74
2022/10/23 01:21:54;;;;;;;;;;;;;;;9.29;100.00;101405.28;4944156;28;20486;-73
2022/10/23 01:24:43;;;;;;;;;;;;;;;9.29;100.00;101402.66;4954665;28;20388;-73
2022/10/23 01:27:16;;;;;;;;;;;;;;;9.28;100.00;101397.41;4942163;28;20012;-73
2022/10/23 01:29:42;;;;;;;;;;;;;;;9.27;100.00;101396.56;4970523;28;20120;-73
2022/10/23 01:32:12;;;;;;;;;;;;;;;9.26;100.00;101394.81;4954183;28;19978;-73
2022/10/23 01:34:40;;;;;;;;;;;;;;;9.26;100.00;101397.44;4955883;28;20064;-73
2022/10/23 01:37:07;;;;;;;;;;;;;;;9.23;100.00;101394.91;4953862;28;19984;-73
2022/10/23 01:39:36;;;;;;;;;;;;;;;9.22;100.00;101383.47;4949925;28;20485;-74
2022/10/23 01:42:11;;;;;;;;;;;;;;;9.20;100.00;101390.59;4943711;28;19932;-73
2022/10/23 01:44:38;;;;;;;;;;;;;;;9.20;100.00;101393.22;4938120;28;20089;-73
2022/10/23 01:47:05;;;;;;;;;;;;;;;9.21;100.00;101388.81;4949286;28;19930;-74
2022/10/23 01:49:30;;;;;;;;;;;;;;;9.21;100.00;101400.22;4972160;28;19925;-73
2022/10/23 01:51:56;;;;;;;;;;;;;;;9.21;100.00;101394.09;4950965;28;20053;-74
2022/10/23 01:54:23;;;;;;;;;;;;;;;9.21;100.00;101391.47;4952071;28;19966;-74
2022/10/23 01:56:48;;;;;;;;;;;;;;;9.22;100.00;101385.25;4949990;28;20571;-73
2022/10/23 01:59:16;;;;;;;;;;;;;;;9.21;100.00;101386.19;4970716;28;19929;-73
2022/10/23 02:01:42;;;;;;;;;;;;;;;9.20;100.00;101387.94;4970485;28;20103;-74
2022/10/23 02:04:08;;;;;;;;;;;;;;;9.21;100.00;101381.75;4949594;28;19950;-73
2022/10/23 02:06:34;;;;;;;;;;;;;;;9.20;100.00;101384.41;4948771;28;19930;-74
2022/10/23 02:08:59;;;;;;;;;;;;;;;9.20;100.00;101384.41;4950387;28;19930;-73
2022/10/23 02:11:24;;;;;;;;;;;;;;;9.17;100.00;101379.25;4969538;28;19930;-73
2022/10/23 02:13:54;;;;;;;;;;;;;;;9.18;100.00;101378.34;4968360;28;19984;-73
2022/10/23 02:16:38;;;;;;;;;;;;;;;9.19;100.00;101378.28;4967010;28;20052;-73
2022/10/23 02:19:10;;;;;;;;;;;;;;;9.20;100.00;101387.94;4968596;28;20580;-74
2022/10/23 02:21:35;;;;;;;;;;;;;;;9.19;100.00;101378.28;4947761;28;19930;-73
2022/10/23 02:24:08;;;;;;;;;;;;;;;9.19;100.00;101375.66;4968703;28;20329;-73
2022/10/23 02:26:36;;;;;;;;;;;;;;;9.19;100.00;101369.50;4950120;28;19930;-73
2022/10/23 02:29:06;;;;;;;;;;;;;;;9.19;100.00;101362.44;4987791;28;19964;-73
2022/10/23 02:31:31;;;;;;;;;;;;;;;9.19;100.00;101364.22;4971957;28;19964;-74
2022/10/23 02:33:57;;;;;;;;;;;;;;;9.18;100.00;101359.84;4960212;28;20335;-73
2022/10/23 02:36:22;;;;;;;;;;;;;;;9.18;100.00;101350.16;4988178;28;20464;-73
2022/10/23 02:38:48;;;;;;;;;;;;;;;9.20;100.00;101347.44;4975570;28;19988;-74
2022/10/23 02:41:29;;;;;;;;;;;;;;;9.20;100.00;101345.66;4990678;28;19948;-73
2022/10/23 02:44:06;;;;;;;;;;;;;;;9.18;100.00;101331.66;4988396;28;19999;-73
2022/10/23 02:46:38;;;;;;;;;;;;;;;9.20;100.00;101340.38;4962742;28;19936;-74
2022/10/23 02:49:09;;;;;;;;;;;;;;;9.22;100.00;101324.50;4967030;28;20468;-74
2022/10/23 02:51:39;;;;;;;;;;;;;;;9.23;100.00;101323.56;4953502;28;19925;-73
2022/10/23 02:54:06;;;;;;;;;;;;;;;9.23;100.00;101327.09;4970870;28;21411;-73
2022/10/23 02:56:36;;;;;;;;;;;;;;;9.25;100.00;101324.38;4990567;28;20381;-73
2022/10/23 02:59:06;;;;;;;;;;;;;;;9.26;100.00;101327.91;4970520;28;21386;-73
2022/10/23 03:01:37;;;;;;;;;;;;;;;9.24;100.00;101309.44;4991211;28;19944;-73
2022/10/23 03:04:02;;;;;;;;;;;;;;;9.22;100.00;101313.94;4969240;28;19937;-73
2022/10/23 03:06:28;;;;;;;;;;;;;;;9.21;100.00;101312.22;4968988;28;19926;-73
2022/10/23 03:09:13;;;;;;;;;;;;;;;9.20;100.00;101313.09;4990586;28;20397;-73
2022/10/23 03:11:39;;;;;;;;;;;;;;;9.21;100.00;101312.22;4989025;28;19980;-73
2022/10/23 03:14:04;;;;;;;;;;;;;;;9.21;100.00;101306.91;4991120;28;19934;-73
2022/10/23 03:16:29;;;;;;;;;;;;;;;9.20;100.00;101311.31;4991305;28;20020;-73
2022/10/23 03:18:55;;;;;;;;;;;;;;;9.21;100.00;101314.84;4990262;28;20018;-74
2022/10/23 03:21:20;;;;;;;;;;;;;;;9.22;100.00;101306.00;4990742;28;19933;-73
2022/10/23 03:23:46;;;;;;;;;;;;;;;9.23;100.00;101305.09;4990244;28;19933;-73
2022/10/23 03:26:11;;;;;;;;;;;;;;;9.25;100.00;101311.19;4971408;28;20475;-73
2022/10/23 03:28:36;;;;;;;;;;;;;;;9.25;100.00;101297.97;4987626;28;19934;-74
2022/10/23 03:31:02;;;;;;;;;;;;;;;9.26;100.00;101297.03;4987487;28;20020;-74
2022/10/23 03:33:28;;;;;;;;;;;;;;;9.28;100.00;101310.22;4985755;28;19934;-74
2022/10/23 03:35:53;;;;;;;;;;;;;;;9.28;100.00;101295.25;4986721;28;19933;-74
2022/10/23 03:38:19;;;;;;;;;;;;;;;9.27;100.00;101296.16;4992998;28;19980;-74
2022/10/23 03:40:44;;;;;;;;;;;;;;;9.25;100.00;101292.69;4959572;28;19968;-73
2022/10/23 03:43:10;;;;;;;;;;;;;;;9.26;100.00;101291.75;4988491;28;20570;-74
2022/10/23 03:45:37;;;;;;;;;;;;;;;9.26;100.00;101291.75;4989257;28;20029;-73
2022/10/23 03:48:03;;;;;;;;;;;;;;;9.23;100.00;101289.22;4991190;28;19979;-74
2022/10/23 03:50:28;;;;;;;;;;;;;;;9.22;100.00;101284.88;4988629;28;19961;-73
2022/10/23 03:52:54;;;;;;;;;;;;;;;9.22;100.00;101287.50;4969968;28;20123;-74
2022/10/23 03:55:19;;;;;;;;;;;;;;;9.22;100.00;101290.16;4992114;28;19933;-73
2022/10/23 03:57:44;;;;;;;;;;;;;;;9.22;100.00;101287.50;4989783;28;19933;-73
2022/10/23 04:00:10;;;;;;;;;;;;;;;9.23;100.00;101279.53;4989537;28;19933;-74
2022/10/23 04:02:35;;;;;;;;;;;;;;;9.23;100.00;101273.38;4971677;28;19933;-73
2022/10/23 04:05:01;;;;;;;;;;;;;;;9.24;100.00;101275.97;4992971;28;19933;-74
2022/10/23 04:07:26;;;;;;;;;;;;;;;9.22;100.00;101276.94;4989655;28;20196;-73
2022/10/23 04:09:52;;;;;;;;;;;;;;;9.21;100.00;101276.06;4976463;28;20032;-74
2022/10/23 04:12:17;;;;;;;;;;;;;;;9.18;100.00;101280.59;4991132;28;19960;-73
2022/10/23 04:14:42;;;;;;;;;;;;;;;9.18;100.00;101275.31;4990400;28;20736;-74
2022/10/23 04:17:08;;;;;;;;;;;;;;;9.16;100.00;101277.13;4990032;28;19936;-74
2022/10/23 04:19:33;;;;;;;;;;;;;;;9.14;100.00;101273.69;4989768;28;20456;-73
2022/10/23 04:21:58;;;;;;;;;;;;;;;9.12;100.00;101264.94;4970475;28;19937;-74
2022/10/23 04:24:24;;;;;;;;;;;;;;;9.14;100.00;101261.31;4991245;28;19933;-74
2022/10/23 04:26:50;;;;;;;;;;;;;;;9.15;100.00;101270.13;4969713;28;20087;-74
2022/10/23 04:29:15;;;;;;;;;;;;;;;9.16;100.00;101266.56;4987332;28;20802;-74
2022/10/23 04:31:41;;;;;;;;;;;;;;;9.20;100.00;101273.47;4970871;28;19929;-73
2022/10/23 04:34:06;;;;;;;;;;;;;;;9.20;100.00;101260.25;4991935;28;19929;-74
2022/10/23 04:36:31;;;;;;;;;;;;;;;9.20;100.00;101269.06;4973685;28;20032;-74
2022/10/23 04:38:57;;;;;;;;;;;;;;;9.19;100.00;101263.81;4960111;28;20009;-73
2022/10/23 04:41:22;;;;;;;;;;;;;;;9.18;100.00;101260.31;4990284;28;19930;-73
2022/10/23 04:43:48;;;;;;;;;;;;;;;9.18;100.00;101267.38;4989296;28;19925;-73
2022/10/23 04:46:13;;;;;;;;;;;;;;;9.19;100.00;101255.88;4986768;28;20432;-74
2022/10/23 04:48:38;;;;;;;;;;;;;;;9.18;100.00;101255.03;4992338;28;19930;-74
2022/10/23 04:51:04;;;;;;;;;;;;;;;9.17;100.00;101250.69;4991324;28;19933;-73
2022/10/23 04:53:30;;;;;;;;;;;;;;;9.16;100.00;101240.16;4969412;28;20704;-74
2022/10/23 04:55:56;;;;;;;;;;;;;;;9.17;100.00;101249.81;4972081;28;19930;-73
2022/10/23 04:58:22;;;;;;;;;;;;;;;9.16;100.00;101246.28;4957030;28;20385;-73
2022/10/23 05:00:47;;;;;;;;;;;;;;;9.17;100.00;101247.16;4971615;28;19929;-73
2022/10/23 05:03:13;;;;;;;;;;;;;;;9.16;100.00;101238.34;4992196;28;20070;-74
2022/10/23 05:05:39;;;;;;;;;;;;;;;9.15;100.00;101233.16;4992297;28;19929;-74
2022/10/23 05:08:04;;;;;;;;;;;;;;;9.15;100.00;101233.16;4971277;28;19957;-74
2022/10/23 05:10:30;;;;;;;;;;;;;;;9.14;100.00;101234.91;4991854;28;20125;-73
2022/10/23 05:12:55;;;;;;;;;;;;;;;9.12;100.00;101235.88;4991270;28;19929;-74
2022/10/23 05:15:20;;;;;;;;;;;;;;;9.10;100.00;101226.22;4991692;28;19925;-73
2022/10/23 05:17:47;;;;;;;;;;;;;;;9.08;100.00;101220.16;4968407;28;19930;-74
2022/10/23 05:20:17;;;;;;;;;;;;;;;9.07;100.00;101210.50;4968934;28;20028;-74
2022/10/23 05:22:42;;;;;;;;;;;;;;;9.06;100.00;101207.91;4969957;28;20354;-73
2022/10/23 05:25:08;;;;;;;;;;;;;;;9.05;100.00;101199.09;4989435;28;19929;-73
2022/10/23 05:27:33;;;;;;;;;;;;;;;9.03;100.00;101190.38;4963690;28;20036;-74
2022/10/23 05:29:59;;;;;;;;;;;;;;;9.02;100.00;101198.34;4970064;28;19929;-73
2022/10/23 05:32:24;;;;;;;;;;;;;;;8.99;100.00;101199.31;4971036;28;19930;-73
2022/10/23 05:34:50;;;;;;;;;;;;;;;8.99;100.00;101206.38;4966276;28;20005;-74
2022/10/23 05:37:15;;;;;;;;;;;;;;;9.01;100.00;101205.41;4967297;28;19925;-73
2022/10/23 05:39:41;;;;;;;;;;;;;;;8.99;100.00;101199.31;4966942;28;19961;-73
2022/10/23 05:42:06;;;;;;;;;;;;;;;9.00;100.00;101193.13;4967645;28;20285;-73
2022/10/23 05:44:31;;;;;;;;;;;;;;;9.01;100.00;101188.69;4970424;28;20459;-74
2022/10/23 05:46:56;;;;;;;;;;;;;;;9.03;100.00;101186.84;4970246;28;19926;-74
2022/10/23 05:49:25;;;;;;;;;;;;;;;9.03;100.00;101187.72;4972799;28;20067;-74
2022/10/23 05:51:51;;;;;;;;;;;;;;;9.03;100.00;101181.56;4952593;28;19929;-73
2022/10/23 05:54:16;;;;;;;;;;;;;;;9.03;100.00;101178.94;4966046;28;19930;-73
2022/10/23 05:56:41;;;;;;;;;;;;;;;9.02;100.00;101172.81;4969955;28;19941;-73
2022/10/23 05:59:07;;;;;;;;;;;;;;;9.00;100.00;101168.47;4970377;28;19930;-74
2022/10/23 06:01:32;;;;;;;;;;;;;;;9.00;100.00;101166.72;4965921;28;19929;-73
2022/10/23 06:03:58;;;;;;;;;;;;;;;9.00;100.00;101163.19;4967889;28;19925;-74
2022/10/23 06:06:24;;;;;;;;;;;;;;;9.01;100.00;101163.16;4969976;28;19930;-73
2022/10/23 06:08:49;;;;;;;;;;;;;;;9.01;100.00;101168.44;4970544;28;19992;-73
2022/10/23 06:11:14;;;;;;;;;;;;;;;9.01;100.00;101171.09;4970409;28;20025;-74
2022/10/23 06:13:43;;;;;;;;;;;;;;;9.04;100.00;101167.47;4961844;28;19936;-74
2022/10/23 06:16:09;;;;;;;;;;;;;;;9.06;100.00;101165.63;4966451;28;20037;-73
2022/10/23 06:18:34;;;;;;;;;;;;;;;9.09;100.00;101170.81;4969290;28;20545;-74
2022/10/23 06:21:00;;;;;;;;;;;;;;;9.12;100.00;101173.34;4965050;28;19926;-73
2022/10/23 06:23:26;;;;;;;;;;;;;;;9.16;100.00;101160.91;4952118;28;19934;-73
2022/10/23 06:25:53;;;;;;;;;;;;;;;9.19;100.00;101155.50;4968488;28;19984;-73
2022/10/23 06:28:18;;;;;;;;;;;;;;;9.21;100.00;101154.53;4965156;28;19934;-73
2022/10/23 06:30:44;;;;;;;;;;;;;;;9.22;100.00;101153.63;4970178;28;19926;-73
2022/10/23 06:33:09;;;;;;;;;;;;;;;9.26;100.00;101156.16;4970770;28;20464;-74
2022/10/23 06:35:35;;;;;;;;;;;;;;;9.27;100.00;101155.25;4970160;28;20523;-74
2022/10/23 06:38:00;;;;;;;;;;;;;;;9.29;100.00;101158.69;4969108;28;20284;-73
2022/10/23 06:40:25;;;;;;;;;;;;;;;9.32;100.00;101164.72;4938987;28;19976;-74
2022/10/23 06:42:51;;;;;;;;;;;;;;;9.34;100.00;101154.13;4963090;28;19930;-74
2022/10/23 06:45:16;;;;;;;;;;;;;;;9.37;100.00;101160.16;4967813;28;19944;-73
2022/10/23 06:47:42;;;;;;;;;;;;;;;9.41;100.00;101160.06;4967942;28;20298;-78
2022/10/23 06:50:07;;;;;;;;;;;;;;;9.44;100.00;101167.88;4954011;28;20416;-76
2022/10/23 06:52:33;;;;;;;;;;;;;;;9.47;100.00;101173.91;4968859;28;19932;-73
2022/10/23 06:54:58;;;;;;;;;;;;;;;9.51;100.00;101166.72;4967605;28;20179;-73
2022/10/23 06:57:24;;;;;;;;;;;;;;;9.53;100.00;101169.31;4966964;28;19930;-74
2022/10/23 06:59:49;;;;;;;;;;;;;;;9.56;100.00;101170.06;4969615;28;20435;-74
2022/10/23 07:02:14;;;;;;;;;;;;;;;9.57;100.00;101169.16;4962937;28;20433;-74
2022/10/23 07:04:40;;;;;;;;;;;;;;;9.61;100.00;101161.97;4966538;28;20016;-74
2022/10/23 07:07:06;;;;;;;;;;;;;;;9.63;100.00;101171.56;4964257;28;19929;-74
2022/10/23 07:09:31;;;;;;;;;;;;;;;9.68;100.00;101159.94;4965375;28;19937;-74
2022/10/23 07:11:56;;;;;;;;;;;;;;;9.70;100.00;101155.50;4964778;28;19926;-74
2022/10/23 07:14:22;;;;;;;;;;;;;;;9.73;100.00;101152.72;4964595;28;20341;-74
2022/10/23 07:16:47;;;;;;;;;;;;;;;9.77;100.00;101149.06;4965421;28;19988;-74
2022/10/23 07:19:13;;;;;;;;;;;;;;;9.81;100.00;101148.00;4960002;28;19980;-74
2022/10/23 07:21:38;;;;;;;;;;;;;;;9.83;100.00;101146.19;4965390;28;19957;-74
2022/10/23 07:24:04;;;;;;;;;;;;;;;9.89;100.00;101142.44;4959447;28;20499;-74
2022/10/23 07:26:31;;;;;;;;;;;;;;;9.93;100.00;101136.13;4968175;28;20218;-73
2022/10/23 07:28:56;;;;;;;;;;;;;;;9.97;100.00;101132.41;4979754;28;19936;-75
2022/10/23 07:31:23;;;;;;;;;;;;;;;10.03;100.00;101136.63;4984654;28;19934;-76
2022/10/23 07:33:49;;;;;;;;;;;;;;;10.07;100.00;101137.38;4964289;28;19930;-75
2022/10/23 07:36:14;;;;;;;;;;;;;;;10.11;100.00;101133.69;4965764;28;20210;-74
2022/10/23 07:38:39;;;;;;;;;;;;;;;10.14;100.00;101128.28;4984525;28;20385;-73
2022/10/23 07:41:05;;;;;;;;;;;;;;;10.18;100.00;101124.56;4983542;28;19957;-74
2022/10/23 07:43:30;;;;;;;;;;;;;;;10.22;100.00;101130.59;4983546;28;20037;-74
2022/10/23 07:45:56;;;;;;;;;;;;;;;10.26;100.00;101126.94;4965285;28;20513;-73
2022/10/23 07:48:22;;;;;;;;;;;;;;;10.30;100.00;101117.97;4984652;28;20135;-74
2022/10/23 07:50:48;;;;;;;;;;;;;;;10.35;100.00;101115.13;4966540;28;19930;-73
2022/10/23 07:53:15;;;;;;;;;;;;;;;10.38;100.00;101120.28;4983003;28;19934;-73
2022/10/23 07:55:41;;;;;;;;;;;;;;;10.41;100.00;101110.44;4984020;28;20392;-73
2022/10/23 07:58:06;;;;;;;;;;;;;;;10.43;100.00;101113.94;4985804;28;20246;-73
2022/10/23 08:00:31;;;;;;;;;;;;;;;10.49;100.00;101111.94;4987716;28;20454;-74
2022/10/23 08:02:57;;;;;;;;;;;;;;;10.52;100.00;101112.66;4988142;28;20004;-74
2022/10/23 08:05:22;;;;;;;;;;;;;;;10.56;100.00;101108.97;4988333;28;19929;-73
2022/10/23 08:07:48;;;;;;;;;;;;;;;10.59;100.00;101108.84;4987719;28;19925;-74
2022/10/23 08:10:14;;;;;;;;;;;;;;;10.63;100.00;101111.38;4953351;28;19988;-73
2022/10/23 08:12:39;;;;;;;;;;;;;;;10.64;100.00;101111.31;4969654;28;20026;-74
2022/10/23 08:15:05;;;;;;;;;;;;;;;10.68;100.00;101112.06;4985475;28;19964;-74
2022/10/23 08:17:30;;;;;;;;;;;;;;;10.72;100.00;101116.28;4986082;28;19932;-74
2022/10/23 08:19:56;;;;;;;;;;;;;;;10.74;100.00;101111.81;4968242;28;19929;-74
2022/10/23 08:22:22;;;;;;;;;;;;;;;10.77;100.00;101116.06;4983624;28;20472;-74
2022/10/23 08:24:47;;;;;;;;;;;;;;;10.80;100.00;101106.25;4968446;28;19933;-74
2022/10/23 08:27:12;;;;;;;;;;;;;;;10.84;100.00;101107.81;4989051;28;20003;-74
2022/10/23 08:29:38;;;;;;;;;;;;;;;10.90;100.00;101108.50;4954091;28;20023;-74
2022/10/23 08:32:03;;;;;;;;;;;;;;;10.95;100.00;101099.41;4954918;28;19933;-74
2022/10/23 08:34:29;;;;;;;;;;;;;;;10.99;100.00;101101.00;4971970;28;19925;-74
2022/10/23 08:36:54;;;;;;;;;;;;;;;11.05;100.00;101099.88;4951816;28;20193;-75
2022/10/23 08:39:20;;;;;;;;;;;;;;;11.11;100.00;101096.13;4971520;28;19991;-74
2022/10/23 08:41:49;;;;;;;;;;;;;;;11.15;100.00;101100.34;4971586;28;20006;-74
2022/10/23 08:44:30;;;;;;;;;;;;;;;11.20;100.00;101102.78;4953990;28;20293;-74
2022/10/23 08:46:58;;;;;;;;;;;;;;;11.23;100.00;101097.38;4970364;28;19980;-75
2022/10/23 08:49:23;;;;;;;;;;;;;;;11.28;100.00;101100.69;4962964;28;19926;-75
2022/10/23 08:51:49;;;;;;;;;;;;;;;11.32;100.00;101101.41;4968538;28;19937;-73
2022/10/23 08:54:15;;;;;;;;;;;;;;;11.35;100.00;101091.53;4966299;28;20419;-74
2022/10/23 09:00:21;;;;;;;;;;;;;;;11.46;100.00;101083.09;4863338;28;20013;-75
2022/10/23 09:02:48;;;;;;;;;;;;;;;11.49;100.00;101082.94;4923377;28;19930;-75
2022/10/23 09:05:25;;;;;;;;;;;;;;;11.53;100.00;101079.22;4951704;28;20353;-74
2022/10/23 09:08:00;;;;;;;;;;;;;;;11.59;100.00;101066.63;4953553;28;20440;-74
2022/10/23 09:10:33;;;;;;;;;;;;;;;11.64;100.00;101059.28;4935623;28;19933;-74
2022/10/23 09:13:01;;;;;;;;;;;;;;;11.70;100.00;101072.25;4921438;28;19930;-75
2022/10/23 09:15:28;;;;;;;;;;;;;;;11.73;100.00;101056.22;4932269;28;19926;-74
2022/10/23 09:17:55;;;;;;;;;;;;;;;11.80;100.00;101048.81;4951431;28;20257;-74
2022/10/23 09:20:26;;;;;;;;;;;;;;;11.83;100.00;101048.69;4920274;28;20509;-75
2022/10/23 09:22:57;;;;;;;;;;;;;;;11.87;100.00;101049.41;4951628;28;19926;-75
2022/10/23 09:25:24;;;;;;;;;;;;;;;11.90;100.00;101055.44;4931736;28;19934;-75
2022/10/23 09:27:51;;;;;;;;;;;;;;;11.94;100.00;101056.97;4938427;28;20077;-75
2022/10/23 09:30:46;;;;;;;;;;;;;;;11.98;100.00;101055.03;4949539;28;19930;-75
2022/10/23 09:33:13;;;;;;;;;;;;;;;12.03;100.00;101039.78;4939528;28;19957;-75
2022/10/23 09:35:49;;;;;;;;;;;;;;;12.06;100.00;101031.69;4952035;28;20378;-75
2022/10/23 09:38:24;;;;;;;;;;;;;;;12.13;100.00;101034.91;4946739;28;20766;-75
2022/10/23 09:40:52;;;;;;;;;;;;;;;12.18;100.00;101032.88;4949471;28;20164;-74
2022/10/23 09:43:20;;;;;;;;;;;;;;;12.23;100.00;101027.34;4951359;28;20536;-75
2022/10/23 09:45:54;;;;;;;;;;;;;;;12.27;100.00;101020.97;4952422;28;20052;-75
2022/10/23 09:48:19;;;;;;;;;;;;;;;12.31;100.00;101017.19;4950819;28;20752;-75
2022/10/23 09:50:51;;;;;;;;;;;;;;;12.38;100.00;101014.25;4952246;28;19930;-75
2022/10/23 09:53:37;;;;;;;;;;;;;;;12.43;100.00;101004.25;4947584;28;19937;-75
2022/10/23 09:56:04;;;;;;;;;;;;;;;12.49;100.00;100999.47;4936468;28;19933;-75
2022/10/23 09:58:34;;;;;;;;;;;;;;;12.54;100.00;101001.91;4945269;28;19966;-77
2022/10/23 10:00:59;;;;;;;;;;;;;;;12.57;100.00;100996.44;4929094;28;20020;-76
2022/10/23 10:03:24;;;;;;;;;;;;;;;12.62;100.00;100993.53;4951517;28;19956;-77
2022/10/23 10:05:54;;;;;;;;;;;;;;;12.66;100.00;100991.59;4951681;28;19930;-77
2022/10/23 10:08:25;;;;;;;;;;;;;;;12.70;100.00;100998.47;4951574;28;20121;-77
2022/10/23 10:10:51;;;;;;;;;;;;;;;12.75;100.00;100999.94;4951505;28;20317;-76
2022/10/23 10:13:30;;;;;;;;;;;;;;;12.81;100.00;100992.59;4951060;28;19930;-76
2022/10/23 10:15:57;;;;;;;;;;;;;;;12.87;100.00;100994.91;4947883;28;19938;-76
2022/10/23 10:18:35;;;;;;;;;;;;;;;12.93;100.00;100991.06;4965380;28;20423;-76
2022/10/23 10:21:06;;;;;;;;;;;;;;;13.01;100.00;100988.84;4947201;28;21548;-77
2022/10/23 10:23:42;;;;;;;;;;;;;;;13.07;100.00;100988.53;4951076;28;20176;-76
2022/10/23 10:26:07;;;;;;;;;;;;;;;13.14;100.00;100979.28;4932674;28;20156;-77
2022/10/23 10:28:45;;;;;;;;;;;;;;;13.22;100.00;100972.69;4951196;28;19928;-77
2022/10/23 10:31:10;;;;;;;;;;;;;;;13.26;100.00;100974.25;4951243;28;19954;-77
2022/10/23 10:33:46;;;;;;;;;;;;;;;13.32;100.00;100981.88;4950792;28;20016;-76
2022/10/23 10:36:30;;;;;;;;;;;;;;;13.36;100.00;100971.94;4929470;28;20213;-76
2022/10/23 10:39:00;;;;;;;;;;;;;;;13.42;100.00;100977.78;4930230;28;19934;-76
2022/10/23 10:41:43;;;;;;;;;;;;;;;13.50;100.00;100965.91;4949736;28;19941;-76
2022/10/23 10:44:12;;;;;;;;;;;;;;;13.55;100.00;100972.66;4945250;28;19930;-75
2022/10/23 10:46:40;;;;;;;;;;;;;;;13.61;100.00;100966.13;4927545;28;19930;-75
2022/10/23 10:49:06;;;;;;;;;;;;;;;13.67;100.00;100960.47;4948596;28;20278;-75
2022/10/23 10:51:37;;;;;;;;;;;;;;;13.73;100.00;100958.41;4929585;28;19933;-75
2022/10/23 10:54:13;;;;;;;;;;;;;;;13.76;100.00;100947.59;4947016;28;20116;-75
2022/10/23 10:56:40;;;;;;;;;;;;;;;13.82;100.00;100955.22;4926178;28;19926;-74
2022/10/23 10:59:19;;;;;;;;;;;;;;;13.87;100.00;100944.31;4919157;28;19965;-75
2022/10/23 11:01:50;;;;;;;;;;;;;;;13.91;100.00;100938.75;4946777;28;19930;-75
2022/10/23 11:04:21;;;;;;;;;;;;;;;13.95;100.00;100936.75;4947913;28;19930;-76
2022/10/23 11:06:47;;;;;;;;;;;;;;;13.98;100.00;100929.44;4928008;28;20145;-75
2022/10/23 11:09:15;;;;;;;;;;;;;;;14.02;100.00;100919.47;4947655;28;19968;-75
2022/10/23 11:11:40;;;;;;;;;;;;;;;14.06;100.00;100912.16;4927934;28;20368;-75
2022/10/23 11:14:06;;;;;;;;;;;;;;;14.09;100.00;100909.31;4949389;28;19926;-75
2022/10/23 11:16:33;;;;;;;;;;;;;;;14.11;100.00;100908.28;4928299;28;20005;-75
2022/10/23 11:19:14;;;;;;;;;;;;;;;14.13;100.00;100894.88;4948068;28;19926;-76
2022/10/23 11:21:53;;;;;;;;;;;;;;;14.16;100.00;100892.03;4941181;28;20296;-76
2022/10/23 11:24:22;;;;;;;;;;;;;;;14.18;100.00;100876.84;4927831;28;20456;-76
2022/10/23 11:26:50;;;;;;;;;;;;;;;14.21;100.00;100873.97;4953660;28;19933;-76
2022/10/23 11:29:22;;;;;;;;;;;;;;;14.24;100.00;100867.59;4967919;28;19925;-76
2022/10/23 11:31:57;;;;;;;;;;;;;;;14.24;100.00;100871.13;4956444;28;19926;-75
2022/10/23 11:34:32;;;;;;;;;;;;;;;14.26;100.00;100844.41;4953901;28;20189;-75
2022/10/23 11:36:58;;;;;;;;;;;;;;;14.28;100.00;100849.63;4952910;28;20471;-75
2022/10/23 11:39:24;;;;;;;;;;;;;;;14.30;100.00;100839.75;4952789;28;20688;-75
2022/10/23 11:41:56;;;;;;;;;;;;;;;14.31;100.00;100828.13;4953003;28;19937;-76
2022/10/23 11:44:41;;;;;;;;;;;;;;;14.29;100.00;100812.28;4953879;28;20269;-76
2022/10/23 11:47:25;;;;;;;;;;;;;;;14.28;100.00;100812.38;4972823;28;19933;-75
2022/10/23 11:49:51;;;;;;;;;;;;;;;14.26;100.00;100817.78;4956028;28;19929;-76
2022/10/23 11:52:20;;;;;;;;;;;;;;;14.25;100.00;100835.56;4953011;28;19949;-76
2022/10/23 11:54:45;;;;;;;;;;;;;;;14.24;100.00;100835.66;4939983;28;19933;-76
2022/10/23 11:57:12;;;;;;;;;;;;;;;14.22;100.00;100827.75;4975420;28;20640;-76
2022/10/23 11:59:40;;;;;;;;;;;;;;;14.25;100.00;100816.06;4957577;28;20332;-76
2022/10/23 12:02:20;;;;;;;;;;;;;;;14.24;100.00;100807.25;4977988;28;19957;-75
2022/10/23 12:04:46;;;;;;;;;;;;;;;14.22;100.00;100795.81;4977698;28;20812;-75
2022/10/23 12:07:15;;;;;;;;;;;;;;;14.20;100.00;100792.38;4959375;28;20454;-76
2022/10/23 12:09:51;;;;;;;;;;;;;;;14.20;100.00;100787.06;4956650;28;21552;-76
2022/10/23 12:12:31;;;;;;;;;;;;;;;14.19;100.00;100769.38;4954741;28;19930;-76
2022/10/23 12:15:14;;;;;;;;;;;;;;;14.20;100.00;100764.91;4976675;28;19929;-75
2022/10/23 12:17:43;;;;;;;;;;;;;;;14.19;100.00;100760.53;4977032;28;19929;-75
2022/10/23 12:20:11;;;;;;;;;;;;;;;14.16;100.00;100761.56;4940146;28;20020;-75
2022/10/23 12:22:39;;;;;;;;;;;;;;;14.17;100.00;100752.63;4963923;28;20093;-75
2022/10/23 12:25:12;;;;;;;;;;;;;;;14.18;100.00;100762.34;4977210;28;19934;-75
2022/10/23 12:27:43;;;;;;;;;;;;;;;14.18;100.00;100743.72;4942579;28;19961;-76
2022/10/23 12:30:20;;;;;;;;;;;;;;;14.20;100.00;100744.47;4943083;28;19936;-75
2022/10/23 12:32:53;;;;;;;;;;;;;;;14.22;100.00;100737.22;4976159;28;19984;-76
2022/10/23 12:35:27;;;;;;;;;;;;;;;14.24;100.00;100724.69;4956756;28;19936;-75
2022/10/23 12:37:55;;;;;;;;;;;;;;;14.25;100.00;100710.44;4977041;28;20039;-76
2022/10/23 12:40:21;;;;;;;;;;;;;;;14.25;100.00;100702.44;4957534;28;19926;-75